createdAt,value
2018-07-17T00:00:35.239Z,3.20
2018-07-17T00:03:03.526Z,7.37
2018-07-17T00:05:31.795Z,3.42
2018-07-17T00:08:00.021Z,4.33
2018-07-17T00:10:27.982Z,8.98
2018-07-17T00:12:56.263Z,9.00
2018-07-17T00:15:24.569Z,5.78
2018-07-17T00:17:52.856Z,5.97
2018-07-17T00:20:21.115Z,4.40
2018-07-17T00:22:49.418Z,5.03
2018-07-17T00:25:17.656Z,4.87
2018-07-17T00:27:45.979Z,4.35
2018-07-17T00:30:14.253Z,5.90
2018-07-17T00:32:42.614Z,6.17
2018-07-17T00:35:10.868Z,4.90
2018-07-17T00:37:39.126Z,6.92
2018-07-17T00:40:07.986Z,4.75
2018-07-17T00:42:36.245Z,5.42
2018-07-17T00:45:04.721Z,5.12
2018-07-17T00:47:32.983Z,5.42
2018-07-17T00:50:01.241Z,5.05
2018-07-17T00:52:29.539Z,4.22
2018-07-17T00:54:57.811Z,4.50
2018-07-17T00:57:26.065Z,4.80
2018-07-17T00:59:54.052Z,4.37
2018-07-17T01:02:27.710Z,4.37
2018-07-17T01:05:01.350Z,3.83
2018-07-17T01:07:34.881Z,3.57
2018-07-17T01:10:08.481Z,5.67
2018-07-17T01:12:35.977Z,7.77
2018-07-17T01:15:12.231Z,4.43
2018-07-17T01:17:41.404Z,5.63
2018-07-17T01:20:09.652Z,5.90
2018-07-17T01:22:37.966Z,6.80
2018-07-17T01:25:06.339Z,6.33
2018-07-17T01:27:34.624Z,6.97
2018-07-17T01:30:02.925Z,6.33
2018-07-17T01:32:31.164Z,5.70
2018-07-17T01:34:59.439Z,5.50
2018-07-17T01:37:27.682Z,4.30
2018-07-17T01:39:55.933Z,4.97
2018-07-17T01:42:24.037Z,5.20
2018-07-17T01:44:52.336Z,7.13
2018-07-17T01:47:20.590Z,6.53
2018-07-17T01:49:48.863Z,5.67
2018-07-17T01:52:17.099Z,4.17
2018-07-17T01:54:45.142Z,3.70
2018-07-17T01:57:13.512Z,3.80
2018-07-17T01:59:41.802Z,4.73
2018-07-17T02:02:10.633Z,4.27
2018-07-17T02:04:38.927Z,4.03
2018-07-17T02:07:07.392Z,5.17
2018-07-17T02:09:35.652Z,4.87
2018-07-17T02:12:03.719Z,5.40
2018-07-17T02:14:31.952Z,4.43
2018-07-17T02:17:00.203Z,4.53
2018-07-17T02:19:28.448Z,4.37
2018-07-17T02:21:56.687Z,5.90
2018-07-17T02:24:24.953Z,4.87
2018-07-17T02:26:53.200Z,4.73
2018-07-17T02:29:21.527Z,5.40
2018-07-17T02:31:49.822Z,5.53
2018-07-17T02:34:18.695Z,5.80
2018-07-17T02:36:46.956Z,4.57
2018-07-17T02:39:15.199Z,5.10
2018-07-17T02:41:43.500Z,5.27
2018-07-17T02:44:11.771Z,4.70
2018-07-17T02:46:40.173Z,4.23
2018-07-17T02:49:08.442Z,5.73
2018-07-17T02:51:36.735Z,4.77
2018-07-17T02:54:05.040Z,5.27
2018-07-17T02:56:33.036Z,4.50
2018-07-17T02:59:01.320Z,4.73
2018-07-17T03:01:29.654Z,6.50
2018-07-17T03:03:57.892Z,4.53
2018-07-17T03:06:26.105Z,6.17
2018-07-17T03:08:54.370Z,5.00
2018-07-17T03:11:22.647Z,4.53
2018-07-17T03:13:50.902Z,7.03
2018-07-17T03:16:19.206Z,6.77
2018-07-17T03:18:47.486Z,9.70
2018-07-17T03:21:15.753Z,9.20
2018-07-17T03:23:44.081Z,8.27
2018-07-17T03:26:12.388Z,6.00
2018-07-17T03:28:40.656Z,5.00
2018-07-17T03:31:08.976Z,6.20
2018-07-17T03:33:37.242Z,4.30
2018-07-17T03:36:05.535Z,4.77
2018-07-17T03:38:33.912Z,5.00
2018-07-17T03:41:02.177Z,5.23
2018-07-17T03:43:30.202Z,5.30
2018-07-17T03:45:58.458Z,4.73
2018-07-17T03:48:26.667Z,5.07
2018-07-17T03:50:54.939Z,5.60
2018-07-17T03:53:23.219Z,5.03
2018-07-17T03:55:51.459Z,5.47
2018-07-17T03:58:19.740Z,5.80
2018-07-17T04:00:48.015Z,7.00
2018-07-17T04:03:16.320Z,7.23
2018-07-17T04:05:44.638Z,6.37
2018-07-17T04:08:12.616Z,5.77
2018-07-17T04:10:40.896Z,5.87
2018-07-17T04:13:09.223Z,5.70
2018-07-17T04:15:37.482Z,5.23
2018-07-17T04:18:05.805Z,6.80
2018-07-17T04:20:34.091Z,4.63
2018-07-17T04:23:02.348Z,4.97
2018-07-17T04:25:30.575Z,6.50
2018-07-17T04:27:58.866Z,5.00
2018-07-17T04:30:27.124Z,7.10
2018-07-17T04:32:55.407Z,5.53
2018-07-17T04:35:23.689Z,5.10
2018-07-17T04:37:51.976Z,5.17
2018-07-17T04:40:20.244Z,6.23
2018-07-17T04:42:48.489Z,6.13
2018-07-17T04:45:16.730Z,8.13
2018-07-17T04:47:44.992Z,6.67
2018-07-17T04:50:13.351Z,7.63
2018-07-17T04:52:41.580Z,5.63
2018-07-17T04:55:09.877Z,6.77
2018-07-17T04:57:38.807Z,7.40
2018-07-17T05:00:07.072Z,5.50
2018-07-17T05:02:35.441Z,4.87
2018-07-17T05:05:03.705Z,4.70
2018-07-17T05:07:31.950Z,5.33
2018-07-17T05:10:00.247Z,7.50
2018-07-17T05:12:28.458Z,5.20
2018-07-17T05:14:57.169Z,7.07
2018-07-17T05:17:25.438Z,6.47
2018-07-17T05:19:53.695Z,7.77
2018-07-17T05:22:21.915Z,6.70
2018-07-17T05:24:49.897Z,6.67
2018-07-17T05:27:18.149Z,6.50
2018-07-17T05:29:46.143Z,6.30
2018-07-17T05:32:14.463Z,4.83
2018-07-17T05:34:42.800Z,11.73
2018-07-17T05:37:11.106Z,7.17
2018-07-17T05:39:39.394Z,10.57
2018-07-17T05:42:07.684Z,9.47
2018-07-17T05:44:36.019Z,12.80
2018-07-17T05:47:04.284Z,8.93
2018-07-17T05:49:32.568Z,10.23
2018-07-17T05:52:00.826Z,14.07
2018-07-17T05:54:29.024Z,17.73
2018-07-17T05:56:57.271Z,22.47
2018-07-17T05:59:25.507Z,21.33
2018-07-17T06:01:53.995Z,10.80
2018-07-17T06:04:22.299Z,12.77
2018-07-17T06:06:50.346Z,14.53
2018-07-17T06:09:18.608Z,8.53
2018-07-17T06:11:46.886Z,14.30
2018-07-17T06:14:15.179Z,20.37
2018-07-17T06:16:43.406Z,27.10
2018-07-17T06:19:11.691Z,35.35
2018-07-17T06:21:39.941Z,21.60
2018-07-17T06:24:08.252Z,16.93
2018-07-17T06:26:36.537Z,17.67
2018-07-17T06:29:04.894Z,19.35
2018-07-17T06:31:33.164Z,9.05
2018-07-17T06:34:01.420Z,8.15
2018-07-17T06:36:29.696Z,11.38
2018-07-17T06:38:57.968Z,6.92
2018-07-17T06:41:26.164Z,8.80
2018-07-17T06:43:54.483Z,9.50
2018-07-17T06:46:22.752Z,12.60
2018-07-17T06:48:51.083Z,14.98
2018-07-17T06:51:19.323Z,9.93
2018-07-17T06:53:47.562Z,11.85
2018-07-17T06:56:15.808Z,11.70
2018-07-17T06:58:44.122Z,11.75
2018-07-17T07:01:12.434Z,11.68
2018-07-17T07:03:40.701Z,10.28
2018-07-17T07:06:08.958Z,13.22
2018-07-17T07:08:37.240Z,11.25
2018-07-17T07:11:05.727Z,10.98
2018-07-17T07:13:34.028Z,13.08
2018-07-17T07:16:02.382Z,16.90
2018-07-17T07:18:30.650Z,19.37
2018-07-17T07:20:58.920Z,14.30
2018-07-17T07:23:27.233Z,14.65
2018-07-17T07:25:55.440Z,21.95
2018-07-17T07:28:23.720Z,15.85
2018-07-17T07:30:52.231Z,16.48
2018-07-17T07:33:21.094Z,16.02
2018-07-17T07:35:49.377Z,20.30
2018-07-17T07:38:17.715Z,18.50
2018-07-17T07:40:46.029Z,18.12
2018-07-17T07:43:14.327Z,14.90
2018-07-17T07:45:42.600Z,17.27
2018-07-17T07:48:10.850Z,16.27
2018-07-17T07:50:39.189Z,12.33
2018-07-17T07:53:07.450Z,11.68
2018-07-17T07:55:36.587Z,12.05
2018-07-17T07:58:04.813Z,16.12
2018-07-17T08:00:33.115Z,16.93
2018-07-17T08:03:01.380Z,13.40
2018-07-17T08:05:30.587Z,16.20
2018-07-17T08:07:58.841Z,12.15
2018-07-17T08:10:27.348Z,11.15
2018-07-17T08:12:55.671Z,11.40
2018-07-17T08:15:30.555Z,12.47
2018-07-17T08:17:58.808Z,15.38
2018-07-17T08:20:27.048Z,13.25
2018-07-17T08:22:55.304Z,10.82
2018-07-17T08:25:23.592Z,9.80
2018-07-17T08:27:51.847Z,11.08
2018-07-17T08:30:20.157Z,12.88
2018-07-17T08:32:48.426Z,8.88
2018-07-17T08:35:16.755Z,12.43
2018-07-17T08:37:45.046Z,10.40
2018-07-17T08:40:13.329Z,8.98
2018-07-17T08:42:41.599Z,6.60
2018-07-17T08:45:09.875Z,5.72
2018-07-17T08:47:37.871Z,8.38
2018-07-17T08:50:06.172Z,7.75
2018-07-17T08:52:34.464Z,7.47
2018-07-17T08:55:02.760Z,9.25
2018-07-17T08:57:31.039Z,6.65
2018-07-17T08:59:59.024Z,8.90
2018-07-17T09:02:27.291Z,8.70
2018-07-17T09:04:55.658Z,10.45
2018-07-17T09:07:23.984Z,10.05
2018-07-17T09:09:52.281Z,8.48
2018-07-17T09:12:21.383Z,10.80
2018-07-17T09:14:49.642Z,8.43
2018-07-17T09:17:17.946Z,10.32
2018-07-17T09:19:46.777Z,8.38
2018-07-17T09:22:15.052Z,8.68
2018-07-17T09:24:43.309Z,11.28
2018-07-17T09:27:11.325Z,9.23
2018-07-17T09:29:39.613Z,13.15
2018-07-17T09:32:07.914Z,8.13
2018-07-17T09:34:36.706Z,9.30
2018-07-17T09:37:05.348Z,10.10
2018-07-17T09:39:33.662Z,5.72
2018-07-17T09:42:01.914Z,10.88
2018-07-17T09:44:30.260Z,10.23
2018-07-17T09:46:58.657Z,7.45
2018-07-17T09:49:26.932Z,6.62
2018-07-17T09:51:55.211Z,7.08
2018-07-17T09:54:23.481Z,11.25
2018-07-17T09:56:51.734Z,6.70
2018-07-17T09:59:20.052Z,12.07
2018-07-17T10:01:53.650Z,10.82
2018-07-17T10:04:21.928Z,7.35
2018-07-17T10:06:50.190Z,6.97
2018-07-17T10:09:18.471Z,6.78
2018-07-17T10:11:47.512Z,12.05
2018-07-17T10:14:15.480Z,8.28
2018-07-17T10:16:43.515Z,11.38
2018-07-17T10:19:11.807Z,9.30
2018-07-17T10:21:40.047Z,7.50
2018-07-17T10:24:08.385Z,6.58
2018-07-17T10:26:36.643Z,8.50
2018-07-17T10:29:04.938Z,7.28
2018-07-17T10:31:33.229Z,6.80
2018-07-17T10:34:08.258Z,6.08
2018-07-17T10:36:36.268Z,5.65
2018-07-17T10:39:05.786Z,6.83
2018-07-17T10:41:34.087Z,6.40
2018-07-17T10:44:02.360Z,5.35
2018-07-17T10:46:30.626Z,9.00
2018-07-17T10:48:58.878Z,11.03
2018-07-17T10:51:27.201Z,9.70
2018-07-17T10:53:55.441Z,3.60
2018-07-17T10:56:23.773Z,9.25
2018-07-17T10:58:52.148Z,7.55
2018-07-17T11:01:20.134Z,9.98
2018-07-17T11:03:48.451Z,4.72
2018-07-17T11:06:16.675Z,3.47
2018-07-17T11:08:44.931Z,5.28
2018-07-17T11:11:13.241Z,8.10
2018-07-17T11:13:41.506Z,7.50
2018-07-17T11:16:09.787Z,4.40
2018-07-17T11:18:38.043Z,4.15
2018-07-17T11:21:10.475Z,5.45
2018-07-17T11:23:38.780Z,6.00
2018-07-17T11:26:07.108Z,5.72
2018-07-17T11:28:35.492Z,4.95
2018-07-17T11:31:03.791Z,6.85
2018-07-17T11:33:32.053Z,9.88
2018-07-17T11:36:00.312Z,4.33
2018-07-17T11:38:28.659Z,3.65
2018-07-17T11:40:57.037Z,3.12
2018-07-17T11:43:25.059Z,6.45
2018-07-17T11:45:53.364Z,3.72
2018-07-17T11:48:21.772Z,5.40
2018-07-17T11:50:50.070Z,5.42
2018-07-17T11:53:19.226Z,5.37
2018-07-17T11:55:47.474Z,2.37
2018-07-17T11:58:15.758Z,4.28
2018-07-17T12:00:44.046Z,4.87
2018-07-17T12:03:12.325Z,2.92
2018-07-17T12:05:40.407Z,2.40
2018-07-17T12:08:08.592Z,7.53
2018-07-17T12:10:36.863Z,3.70
2018-07-17T12:13:05.174Z,3.40
2018-07-17T12:15:33.371Z,5.03
2018-07-17T12:18:01.641Z,3.60
2018-07-17T12:20:30.167Z,4.95
2018-07-17T12:22:58.258Z,8.93
2018-07-17T12:25:26.644Z,5.67
2018-07-17T12:27:54.961Z,6.53
2018-07-17T12:30:23.179Z,3.35
2018-07-17T12:32:51.443Z,3.67
2018-07-17T12:35:19.845Z,5.10
2018-07-17T12:37:48.118Z,5.15
2018-07-17T12:40:16.424Z,5.70
2018-07-17T12:42:44.711Z,6.85
2018-07-17T12:45:12.945Z,3.25
2018-07-17T12:47:41.213Z,5.00
2018-07-17T12:50:09.460Z,5.05
2018-07-17T12:52:37.723Z,4.47
2018-07-17T12:55:06.200Z,5.83
2018-07-17T12:57:34.540Z,8.40
2018-07-17T13:00:02.835Z,5.42
2018-07-17T13:02:31.163Z,6.92
2018-07-17T13:04:59.139Z,5.85
2018-07-17T13:07:27.148Z,6.22
2018-07-17T13:09:55.415Z,6.83
2018-07-17T13:12:23.804Z,5.08
2018-07-17T13:14:53.023Z,4.72
2018-07-17T13:17:27.749Z,4.85
2018-07-17T13:19:56.024Z,4.95
2018-07-17T13:22:24.323Z,2.80
2018-07-17T13:24:52.547Z,5.05
2018-07-17T13:27:20.819Z,6.97
2018-07-17T13:29:49.144Z,3.98
2018-07-17T13:32:17.430Z,3.02
2018-07-17T13:34:45.485Z,3.72
2018-07-17T13:37:13.775Z,5.65
2018-07-17T13:39:42.023Z,5.75
2018-07-17T13:42:10.324Z,5.12
2018-07-17T13:44:38.774Z,6.17
2018-07-17T13:47:07.077Z,5.55
2018-07-17T13:49:35.364Z,5.05
2018-07-17T13:52:03.667Z,6.62
2018-07-17T13:54:32.782Z,8.45
2018-07-17T13:57:02.441Z,4.42
2018-07-17T13:59:30.962Z,2.90
2018-07-17T14:02:01.347Z,5.92
2018-07-17T14:04:33.661Z,2.95
2018-07-17T14:07:06.065Z,4.65
2018-07-17T14:09:37.594Z,4.97
2018-07-17T14:12:08.837Z,4.78
2018-07-17T14:14:40.987Z,5.30
2018-07-17T14:17:11.258Z,4.50
2018-07-17T14:19:41.668Z,5.00
2018-07-17T14:22:11.381Z,9.70
2018-07-17T14:24:40.854Z,6.03
2018-07-17T14:27:10.620Z,3.77
2018-07-17T14:29:41.926Z,5.70
2018-07-17T14:32:15.708Z,3.77
2018-07-17T14:34:45.436Z,7.78
2018-07-17T14:37:15.279Z,4.30
2018-07-17T14:39:46.276Z,3.17
2018-07-17T14:42:17.095Z,7.58
2018-07-17T14:44:47.551Z,3.27
2018-07-17T14:47:21.493Z,8.08
2018-07-17T14:49:52.376Z,7.15
2018-07-17T14:52:22.290Z,7.72
2018-07-17T14:54:54.349Z,5.00
2018-07-17T14:57:25.716Z,3.77
2018-07-17T14:59:54.090Z,6.62
2018-07-17T15:02:22.340Z,6.17
2018-07-17T15:04:50.662Z,3.95
2018-07-17T15:07:19.479Z,6.03
2018-07-17T15:09:47.869Z,4.08
2018-07-17T15:12:17.201Z,5.62
2018-07-17T15:14:45.508Z,4.33
2018-07-17T15:17:13.797Z,4.95
2018-07-17T15:19:42.025Z,3.55
2018-07-17T15:22:10.301Z,7.17
2018-07-17T15:24:38.307Z,10.32
2018-07-17T15:27:06.559Z,4.28
2018-07-17T15:29:35.240Z,8.28
2018-07-17T15:32:03.642Z,2.42
2018-07-17T15:34:31.851Z,5.35
2018-07-17T15:37:00.136Z,4.80
2018-07-17T15:39:28.518Z,5.70
2018-07-17T15:41:56.856Z,4.05
2018-07-17T15:44:25.108Z,4.50
2018-07-17T15:46:53.524Z,4.45
2018-07-17T15:49:28.579Z,4.35
2018-07-17T15:51:56.860Z,5.67
2018-07-17T15:54:25.176Z,3.87
2018-07-17T15:56:53.452Z,4.65
2018-07-17T15:59:21.734Z,3.25
2018-07-17T16:01:50.054Z,5.53
2018-07-17T16:04:18.631Z,4.35
2018-07-17T16:06:46.908Z,4.10
2018-07-17T16:09:15.135Z,9.80
2018-07-17T16:11:43.430Z,6.35
2018-07-17T16:14:12.118Z,11.73
2018-07-17T16:16:40.008Z,11.93
2018-07-17T16:19:08.452Z,7.75
2018-07-17T16:21:37.053Z,9.38
2018-07-17T16:24:05.330Z,2.98
2018-07-17T16:26:33.697Z,6.42
2018-07-17T16:29:01.944Z,3.52
2018-07-17T16:31:30.036Z,6.53
2018-07-17T16:33:58.355Z,7.40
2018-07-17T16:36:26.607Z,3.90
2018-07-17T16:38:54.891Z,5.75
2018-07-17T16:41:23.185Z,5.95
2018-07-17T16:43:51.536Z,7.10
2018-07-17T16:46:19.832Z,6.95
2018-07-17T16:48:48.206Z,8.55
2018-07-17T16:51:16.468Z,4.67
2018-07-17T16:53:44.755Z,14.65
2018-07-17T16:56:12.994Z,16.48
2018-07-17T16:58:41.274Z,9.28
2018-07-17T17:01:09.593Z,32.98
2018-07-17T17:03:38.479Z,11.12
2018-07-17T17:06:06.797Z,14.43
2018-07-17T17:08:34.758Z,13.30
2018-07-17T17:11:02.999Z,21.37
2018-07-17T17:13:31.333Z,8.45
2018-07-17T17:15:59.607Z,12.15
2018-07-17T17:18:27.602Z,8.25
2018-07-17T17:20:55.916Z,11.57
2018-07-17T17:23:24.192Z,7.17
2018-07-17T17:25:52.423Z,8.50
2018-07-17T17:28:20.740Z,14.40
2018-07-17T17:30:49.004Z,8.13
2018-07-17T17:33:17.593Z,6.28
2018-07-17T17:35:46.088Z,6.22
2018-07-17T17:38:14.668Z,7.95
2018-07-17T17:40:43.427Z,5.00
2018-07-17T17:43:11.848Z,9.08
2018-07-17T17:45:40.391Z,7.50
2018-07-17T17:48:08.904Z,8.83
2018-07-17T17:50:37.471Z,6.90
2018-07-17T17:53:06.083Z,6.10
2018-07-17T17:55:34.745Z,4.85
2018-07-17T17:58:03.403Z,6.10
2018-07-17T18:00:32.003Z,6.58
2018-07-17T18:03:00.645Z,6.83
2018-07-17T18:05:29.325Z,6.50
2018-07-17T18:07:57.938Z,7.35
2018-07-17T18:10:26.427Z,9.75
2018-07-17T18:12:54.696Z,8.63
2018-07-17T18:15:23.025Z,9.45
2018-07-17T18:17:51.404Z,7.45
2018-07-17T18:20:19.850Z,9.25
2018-07-17T18:22:48.342Z,11.35
2018-07-17T18:25:16.685Z,8.55
2018-07-17T18:27:45.349Z,8.63
2018-07-17T18:30:13.691Z,9.73
2018-07-17T18:32:42.000Z,7.45
2018-07-17T18:35:10.138Z,10.28
2018-07-17T18:37:38.476Z,6.72
2018-07-17T18:40:06.968Z,5.28
2018-07-17T18:42:36.212Z,6.92
2018-07-17T18:45:04.604Z,9.23
2018-07-17T18:47:33.268Z,6.70
2018-07-17T18:50:12.583Z,6.50
2018-07-17T18:52:29.800Z,9.25
2018-07-17T18:54:58.198Z,7.95
2018-07-17T18:57:29.822Z,7.00
2018-07-17T18:59:58.216Z,8.60
2018-07-17T19:02:26.598Z,10.98
2018-07-17T19:04:54.919Z,6.53
2018-07-17T19:07:23.250Z,9.55
2018-07-17T19:09:51.559Z,11.12
2018-07-17T19:12:19.680Z,10.23
2018-07-17T19:14:48.109Z,9.45
2018-07-17T19:17:16.473Z,10.35
2018-07-17T19:19:45.155Z,7.55
2018-07-17T19:22:13.991Z,8.05
2018-07-17T19:24:42.339Z,7.85
2018-07-17T19:27:10.703Z,7.08
2018-07-17T19:29:39.026Z,7.05
2018-07-17T19:32:07.457Z,6.72
2018-07-17T19:34:37.024Z,6.22
2018-07-17T19:37:05.536Z,7.60
2018-07-17T19:39:33.849Z,7.83
2018-07-17T19:42:01.918Z,6.95
2018-07-17T19:44:30.196Z,6.00
2018-07-17T19:46:58.291Z,6.53
2018-07-17T19:49:26.576Z,7.55
2018-07-17T19:51:55.365Z,8.55
2018-07-17T19:54:24.818Z,5.83
2018-07-17T19:56:53.172Z,8.58
2018-07-17T19:59:21.508Z,5.50
2018-07-17T20:01:49.912Z,4.37
2018-07-17T20:04:18.269Z,4.90
2018-07-17T20:06:53.317Z,7.78
2018-07-17T20:09:23.258Z,5.93
2018-07-17T20:11:51.614Z,4.90
2018-07-17T20:14:19.973Z,5.67
2018-07-17T20:16:53.445Z,6.23
2018-07-17T20:19:21.880Z,6.15
2018-07-17T20:21:50.260Z,13.27
2018-07-17T20:24:18.581Z,6.22
2018-07-17T20:26:46.960Z,5.53
2018-07-17T20:29:16.155Z,7.00
2018-07-17T20:31:44.470Z,9.90
2018-07-17T20:34:12.759Z,8.35
2018-07-17T20:36:41.056Z,7.00
2018-07-17T20:39:10.406Z,9.93
2018-07-17T20:41:38.825Z,6.97
2018-07-17T20:44:07.432Z,7.92
2018-07-17T20:46:35.817Z,6.95
2018-07-17T20:49:04.192Z,6.53
2018-07-17T20:51:32.478Z,8.28
2018-07-17T20:54:07.191Z,16.37
2018-07-17T20:56:35.473Z,6.97
2018-07-17T20:59:03.827Z,5.78
2018-07-17T21:01:32.105Z,5.95
2018-07-17T21:04:00.406Z,9.90
2018-07-17T21:06:28.723Z,6.92
2018-07-17T21:08:56.991Z,6.57
2018-07-17T21:11:25.238Z,8.97
2018-07-17T21:13:53.537Z,10.13
2018-07-17T21:16:21.868Z,7.77
2018-07-17T21:18:50.165Z,16.67
2018-07-17T21:21:18.447Z,7.37
2018-07-17T21:23:46.810Z,6.85
2018-07-17T21:26:15.164Z,7.40
2018-07-17T21:28:43.497Z,8.80
2018-07-17T21:31:11.514Z,7.37
2018-07-17T21:33:39.818Z,12.17
2018-07-17T21:36:08.128Z,7.10
2018-07-17T21:38:36.416Z,10.77
2018-07-17T21:41:04.695Z,10.73
2018-07-17T21:43:32.953Z,10.67
2018-07-17T21:46:00.944Z,10.37
2018-07-17T21:48:29.258Z,15.47
2018-07-17T21:50:57.590Z,10.43
2018-07-17T21:53:25.907Z,7.17
2018-07-17T21:55:54.236Z,8.47
2018-07-17T21:58:22.464Z,8.30
2018-07-17T22:00:51.744Z,7.37
2018-07-17T22:03:20.057Z,5.50
2018-07-17T22:05:48.324Z,5.67
2018-07-17T22:08:16.545Z,5.30
2018-07-17T22:10:44.777Z,5.23
2018-07-17T22:13:13.035Z,6.07
2018-07-17T22:15:41.520Z,10.20
2018-07-17T22:18:09.802Z,5.90
2018-07-17T22:20:38.067Z,9.43
2018-07-17T22:23:06.393Z,8.43
2018-07-17T22:25:34.719Z,10.50
2018-07-17T22:28:03.062Z,8.40
2018-07-17T22:30:31.263Z,5.50
2018-07-17T22:32:59.549Z,5.83
2018-07-17T22:35:28.009Z,6.10
2018-07-17T22:37:56.316Z,5.70
2018-07-17T22:40:24.619Z,9.60
2018-07-17T22:42:52.803Z,5.37
2018-07-17T22:45:21.078Z,6.93
2018-07-17T22:47:49.349Z,8.30
2018-07-17T22:50:17.606Z,6.10
2018-07-17T22:52:46.860Z,6.17
2018-07-17T22:55:15.183Z,7.63
2018-07-17T22:57:43.505Z,9.20
2018-07-17T23:00:11.804Z,8.53
2018-07-17T23:02:40.079Z,10.50
2018-07-17T23:05:08.599Z,9.47
2018-07-17T23:07:36.884Z,6.87
2018-07-17T23:10:05.308Z,6.90
2018-07-17T23:12:33.574Z,8.10
2018-07-17T23:15:01.817Z,8.10
2018-07-17T23:17:30.100Z,9.53
2018-07-17T23:19:58.134Z,8.10
2018-07-17T23:22:35.069Z,10.37
2018-07-17T23:25:03.347Z,6.87
2018-07-17T23:27:31.596Z,10.90
2018-07-17T23:29:59.875Z,10.23
2018-07-17T23:32:28.244Z,8.13
2018-07-17T23:34:56.535Z,10.33
2018-07-17T23:37:24.856Z,10.07
2018-07-17T23:39:53.143Z,8.17
2018-07-17T23:42:21.445Z,8.83
2018-07-17T23:44:49.695Z,10.53
2018-07-17T23:47:17.948Z,10.70
2018-07-17T23:49:46.254Z,12.67
2018-07-17T23:52:14.538Z,10.80
2018-07-17T23:54:42.869Z,12.43
2018-07-17T23:57:11.113Z,10.60
2018-07-17T23:59:39.544Z,9.80
